Time,TemperatureF,DewpointF,PressureIn,WindDirection,WindDirectionDegrees,WindSpeedMPH,WindSpeedGustMPH,Humidity,HourlyPrecipIn,Conditions,Clouds,dailyrainin,SoftwareType,DateUTC
2013-02-23 00:00:00,45.0,32.0,30.15,NE,45,3.0,6.0,60,0.00,,---,0.00,VWS V14.01,2013-02-23 08:00:00,
2013-02-23 00:15:00,44.9,31.5,30.14,NE,45,2.0,6.0,59,0.00,,---,0.00,VWS V14.01,2013-02-23 08:15:00,
2013-02-23 00:30:00,45.0,31.5,30.14,NE,45,3.0,5.0,59,0.00,,---,0.00,VWS V14.01,2013-02-23 08:30:00,
2013-02-23 00:45:00,45.2,31.3,30.14,NE,45,3.0,7.0,58,0.00,,---,0.00,VWS V14.01,2013-02-23 08:45:00,
2013-02-23 01:00:00,45.2,31.3,30.13,NE,45,3.0,6.0,58,0.00,,---,0.00,VWS V14.01,2013-02-23 09:00:00,
2013-02-23 01:15:00,45.0,31.1,30.13,NE,45,2.0,5.0,58,0.00,,---,0.00,VWS V14.01,2013-02-23 09:15:00,
2013-02-23 01:30:00,44.7,30.9,30.12,NE,45,2.0,5.0,58,0.00,,---,0.00,VWS V14.01,2013-02-23 09:30:00,
2013-02-23 01:45:00,44.8,30.9,30.12,NE,45,3.0,7.0,58,0.00,,---,0.00,VWS V14.01,2013-02-23 09:45:00,
2013-02-23 02:00:00,45.0,31.1,30.12,NE,45,3.0,7.0,58,0.00,,---,0.00,VWS V14.01,2013-02-23 10:00:00,
2013-02-23 02:15:00,44.6,30.8,30.11,NE,45,1.0,4.0,58,0.00,,---,0.00,VWS V14.01,2013-02-23 10:15:00,
2013-02-23 02:30:00,44.2,30.8,30.10,NE,45,2.0,4.0,59,0.00,,---,0.00,VWS V14.01,2013-02-23 10:30:00,
2013-02-23 02:45:00,43.8,30.8,30.10,NE,45,2.0,4.0,60,0.00,,---,0.00,VWS V14.01,2013-02-23 10:45:00,
2013-02-23 03:00:00,43.6,30.2,30.10,NE,45,1.0,4.0,59,0.00,,---,0.00,VWS V14.01,2013-02-23 11:00:00,
2013-02-23 03:15:00,43.4,30.5,30.10,NE,45,1.0,4.0,60,0.00,,---,0.00,VWS V14.01,2013-02-23 11:15:00,
2013-02-23 03:30:00,43.1,30.2,30.10,NE,45,1.0,4.0,60,0.00,,---,0.00,VWS V14.01,2013-02-23 11:30:00,
2013-02-23 03:45:00,42.8,30.7,30.09,NE,45,1.0,4.0,62,0.00,,---,0.00,VWS V14.01,2013-02-23 11:45:00,
2013-02-23 04:00:00,42.7,30.2,30.10,NE,45,1.0,4.0,61,0.00,,---,0.00,VWS V14.01,2013-02-23 12:00:00,
2013-02-23 04:15:00,42.8,30.3,30.10,NE,45,2.0,4.0,61,0.00,,---,0.00,VWS V14.01,2013-02-23 12:15:00,
2013-02-23 04:30:00,43.2,30.3,30.11,NE,45,2.0,5.0,60,0.00,,---,0.00,VWS V14.01,2013-02-23 12:30:00,
2013-02-23 04:45:00,43.0,29.2,30.11,NE,45,1.0,3.0,58,0.01,,---,0.01,VWS V14.01,2013-02-23 12:45:00,
2013-02-23 05:00:00,42.4,29.5,30.10,NE,45,0.0,0.0,60,0.01,,---,0.01,VWS V14.01,2013-02-23 13:00:00,
2013-02-23 05:15:00,42.1,29.6,30.11,NE,45,2.0,4.0,61,0.01,,---,0.01,VWS V14.01,2013-02-23 13:15:00,
2013-02-23 05:30:00,41.8,29.4,30.10,NE,45,1.0,4.0,61,0.01,,---,0.01,VWS V14.01,2013-02-23 13:30:00,
2013-02-23 05:45:00,41.4,29.0,30.09,NE,45,1.0,4.0,61,0.01,,---,0.01,VWS V14.01,2013-02-23 13:45:00,
2013-02-23 06:00:00,41.1,28.3,30.09,NE,45,1.0,4.0,60,0.00,,---,0.01,VWS V14.01,2013-02-23 14:00:00,
2013-02-23 06:15:00,41.5,27.8,30.10,NE,45,2.0,4.0,58,0.00,,---,0.01,VWS V14.01,2013-02-23 14:15:00,
2013-02-23 06:30:00,41.8,27.7,30.10,NE,45,2.0,4.0,57,0.00,,---,0.01,VWS V14.01,2013-02-23 14:30:00,
2013-02-23 06:45:00,42.4,28.3,30.10,NE,45,3.0,6.0,57,0.00,,---,0.01,VWS V14.01,2013-02-23 14:45:00,
2013-02-23 07:00:00,42.9,28.7,30.10,NE,45,3.0,5.0,57,0.00,,---,0.01,VWS V14.01,2013-02-23 15:00:00,
2013-02-23 07:15:00,43.1,29.3,30.11,NE,45,2.0,4.0,58,0.00,,---,0.01,VWS V14.01,2013-02-23 15:15:00,
2013-02-23 07:30:00,44.1,30.3,30.11,NE,45,1.0,4.0,58,0.00,,---,0.01,VWS V14.01,2013-02-23 15:30:00,
2013-02-23 07:45:00,47.6,32.2,30.10,NE,45,0.0,0.0,55,0.00,,---,0.01,VWS V14.01,2013-02-23 15:45:00,
2013-02-23 08:00:00,53.6,33.3,30.09,NE,45,0.0,0.0,46,0.00,,---,0.01,VWS V14.01,2013-02-23 16:00:00,
2013-02-23 08:15:00,54.2,32.2,30.10,NE,45,0.0,0.0,43,0.00,,---,0.01,VWS V14.01,2013-02-23 16:15:00,
2013-02-23 08:30:00,54.5,33.6,30.10,NE,45,0.0,0.0,45,0.00,,---,0.01,VWS V14.01,2013-02-23 16:30:00,
2013-02-23 08:45:00,56.8,34.0,30.09,SSW,202,1.0,4.0,42,0.00,,---,0.01,VWS V14.01,2013-02-23 16:45:00,
2013-02-23 09:00:00,58.8,35.2,30.09,SSW,202,0.0,3.0,41,0.00,,---,0.01,VWS V14.01,2013-02-23 17:00:00,
2013-02-23 09:15:00,60.2,34.5,30.08,WSW,248,0.0,4.0,38,0.00,,---,0.01,VWS V14.01,2013-02-23 17:15:00,
2013-02-23 09:30:00,60.3,33.9,30.07,SSW,202,1.0,5.0,37,0.00,,---,0.01,VWS V14.01,2013-02-23 17:30:00,
2013-02-23 09:45:00,60.8,35.1,30.08,SW,225,1.0,7.0,38,0.00,,---,0.01,VWS V14.01,2013-02-23 17:45:00,
2013-02-23 10:00:00,60.6,34.2,30.08,SW,225,3.0,6.0,37,0.00,,---,0.01,VWS V14.01,2013-02-23 18:00:00,
2013-02-23 10:15:00,60.5,36.7,30.08,SW,225,3.0,7.0,41,0.00,,---,0.01,VWS V14.01,2013-02-23 18:15:00,
2013-02-23 10:30:00,61.0,35.2,30.08,West,270,2.0,6.0,38,0.00,,---,0.01,VWS V14.01,2013-02-23 18:30:00,
2013-02-23 10:45:00,61.9,36.7,30.08,WSW,248,3.0,7.0,39,0.00,,---,0.01,VWS V14.01,2013-02-23 18:45:00,
2013-02-23 11:00:00,62.1,34.2,30.07,SW,225,3.0,7.0,35,0.00,,---,0.01,VWS V14.01,2013-02-23 19:00:00,
2013-02-23 11:15:00,62.5,34.5,30.06,SW,225,3.0,7.0,35,0.00,,---,0.01,VWS V14.01,2013-02-23 19:15:00,
2013-02-23 11:30:00,61.7,37.8,30.05,West,270,2.0,6.0,41,0.00,,---,0.01,VWS V14.01,2013-02-23 19:30:00,
2013-02-23 11:45:00,63.3,39.8,30.04,WSW,248,3.0,10.0,42,0.00,,---,0.01,VWS V14.01,2013-02-23 19:45:00,
2013-02-23 12:00:00,63.1,41.4,30.03,SW,225,4.0,9.0,45,0.00,,---,0.01,VWS V14.01,2013-02-23 20:00:00,
2013-02-23 12:15:00,62.7,40.5,30.02,WSW,248,2.0,7.0,44,0.00,,---,0.01,VWS V14.01,2013-02-23 20:15:00,
2013-02-23 12:30:00,63.6,41.3,30.01,SW,225,3.0,7.0,44,0.00,,---,0.01,VWS V14.01,2013-02-23 20:30:00,
2013-02-23 12:45:00,63.4,39.9,30.00,West,270,2.0,9.0,42,0.00,,---,0.01,VWS V14.01,2013-02-23 20:45:00,
2013-02-23 13:00:00,64.3,41.9,30.00,West,270,3.0,10.0,44,0.00,,---,0.01,VWS V14.01,2013-02-23 21:00:00,
2013-02-23 13:15:00,65.0,44.3,29.98,SW,225,4.0,10.0,47,0.00,,---,0.01,VWS V14.01,2013-02-23 21:15:00,
2013-02-23 13:30:00,65.1,44.9,29.97,WSW,248,3.0,8.0,48,0.00,,---,0.01,VWS V14.01,2013-02-23 21:30:00,
2013-02-23 13:45:00,64.9,44.2,29.96,SW,225,4.0,9.0,47,0.00,,---,0.01,VWS V14.01,2013-02-23 21:45:00,
2013-02-23 14:00:00,64.4,43.2,29.96,West,270,3.0,7.0,46,0.00,,---,0.01,VWS V14.01,2013-02-23 22:00:00,
2013-02-23 14:15:00,63.9,43.3,29.95,WSW,248,3.0,9.0,47,0.00,,---,0.01,VWS V14.01,2013-02-23 22:15:00,
2013-02-23 14:30:00,63.6,41.9,29.94,SW,225,5.0,11.0,45,0.00,,---,0.01,VWS V14.01,2013-02-23 22:30:00,
2013-02-23 14:45:00,63.9,43.3,29.93,SW,225,3.0,11.0,47,0.00,,---,0.01,VWS V14.01,2013-02-23 22:45:00,
2013-02-23 15:00:00,62.6,43.7,29.94,SW,225,6.0,11.0,50,0.00,,---,0.01,VWS V14.01,2013-02-23 23:00:00,
2013-02-23 15:15:00,61.8,43.5,29.93,SW,225,5.0,10.0,51,0.00,,---,0.01,VWS V14.01,2013-02-23 23:15:00,
2013-02-23 15:30:00,60.8,44.1,29.93,SW,225,4.0,10.0,54,0.00,,---,0.01,VWS V14.01,2013-02-23 23:30:00,
2013-02-23 15:45:00,60.0,43.3,29.93,SW,225,4.0,9.0,54,0.00,,---,0.01,VWS V14.01,2013-02-23 23:45:00,
2013-02-23 16:00:00,59.5,41.9,29.93,WSW,248,3.0,7.0,52,0.00,,---,0.01,VWS V14.01,2013-02-24 00:00:00,
2013-02-23 16:15:00,59.0,39.9,29.93,WSW,248,3.0,8.0,49,0.00,,---,0.01,VWS V14.01,2013-02-24 00:15:00,
2013-02-23 16:30:00,58.3,37.6,29.93,WSW,248,3.0,9.0,46,0.00,,---,0.01,VWS V14.01,2013-02-24 00:30:00,
2013-02-23 16:45:00,57.6,37.5,29.92,SW,225,4.0,7.0,47,0.00,,---,0.01,VWS V14.01,2013-02-24 00:45:00,
2013-02-23 17:00:00,56.8,40.3,29.93,South,180,3.0,10.0,54,0.00,,---,0.01,VWS V14.01,2013-02-24 01:00:00,
2013-02-23 17:15:00,56.0,38.6,29.93,SW,225,2.0,6.0,52,0.00,,---,0.01,VWS V14.01,2013-02-24 01:15:00,
2013-02-23 17:30:00,55.2,41.1,29.92,SW,225,2.0,6.0,59,0.00,,---,0.01,VWS V14.01,2013-02-24 01:30:00,
2013-02-23 17:45:00,53.9,41.6,29.93,SW,225,2.0,6.0,63,0.00,,---,0.01,VWS V14.01,2013-02-24 01:45:00,
2013-02-23 18:00:00,52.8,42.2,29.94,South,180,1.0,5.0,67,0.00,,---,0.01,VWS V14.01,2013-02-24 02:00:00,
2013-02-23 18:15:00,51.7,41.9,29.95,SSE,158,0.0,3.0,69,0.00,,---,0.01,VWS V14.01,2013-02-24 02:15:00,
2013-02-23 18:30:00,51.0,41.9,29.95,SSE,158,0.0,4.0,71,0.00,,---,0.01,VWS V14.01,2013-02-24 02:30:00,
2013-02-23 18:45:00,50.3,42.0,29.95,SSE,158,0.0,3.0,73,0.00,,---,0.01,VWS V14.01,2013-02-24 02:45:00,
2013-02-23 19:00:00,49.9,42.7,29.95,SSE,158,0.0,3.0,76,0.00,,---,0.01,VWS V14.01,2013-02-24 03:00:00,
2013-02-23 19:15:00,49.4,42.5,29.94,SSE,158,0.0,2.0,77,0.00,,---,0.01,VWS V14.01,2013-02-24 03:15:00,
2013-02-23 19:30:00,49.2,43.0,29.95,ESE,112,0.0,4.0,79,0.00,,---,0.01,VWS V14.01,2013-02-24 03:30:00,
2013-02-23 19:45:00,48.5,41.6,29.95,ESE,112,0.0,3.0,77,0.00,,---,0.01,VWS V14.01,2013-02-24 03:45:00,
2013-02-23 20:00:00,47.5,40.0,29.94,ENE,68,1.0,4.0,75,0.00,,---,0.01,VWS V14.01,2013-02-24 04:00:00,
2013-02-23 20:15:00,46.9,39.4,29.95,ENE,68,1.0,4.0,75,0.00,,---,0.01,VWS V14.01,2013-02-24 04:15:00,
2013-02-23 20:30:00,46.5,39.0,29.94,NE,45,1.0,3.0,75,0.00,,---,0.01,VWS V14.01,2013-02-24 04:30:00,
2013-02-23 20:45:00,46.1,38.6,29.95,NE,45,1.0,4.0,75,0.00,,---,0.01,VWS V14.01,2013-02-24 04:45:00,
2013-02-23 21:00:00,45.9,38.4,29.95,NE,45,0.0,0.0,75,0.00,,---,0.01,VWS V14.01,2013-02-24 05:00:00,
2013-02-23 21:15:00,45.5,38.0,29.96,NE,45,1.0,5.0,75,0.00,,---,0.01,VWS V14.01,2013-02-24 05:15:00,
2013-02-23 21:30:00,45.1,38.0,29.96,NE,45,2.0,4.0,76,0.01,,---,0.02,VWS V14.01,2013-02-24 05:30:00,
2013-02-23 21:45:00,45.0,38.2,29.96,NE,45,0.0,4.0,77,0.01,,---,0.02,VWS V14.01,2013-02-24 05:45:00,
2013-02-23 22:00:00,44.8,38.4,29.96,NE,45,1.0,4.0,78,0.01,,---,0.02,VWS V14.01,2013-02-24 06:00:00,
2013-02-23 22:15:00,44.6,38.2,29.96,NE,45,2.0,4.0,78,0.01,,---,0.02,VWS V14.01,2013-02-24 06:15:00,
2013-02-23 22:30:00,44.4,38.3,29.96,NE,45,2.0,5.0,79,0.01,,---,0.02,VWS V14.01,2013-02-24 06:30:00,
2013-02-23 22:45:00,44.3,38.5,29.97,NE,45,1.0,5.0,80,0.00,,---,0.02,VWS V14.01,2013-02-24 06:45:00,
2013-02-23 23:00:00,44.3,38.8,29.98,NE,45,1.0,4.0,81,0.00,,---,0.02,VWS V14.01,2013-02-24 07:00:00,
2013-02-23 23:15:00,44.2,38.8,29.98,NE,45,0.0,3.0,81,0.00,,---,0.02,VWS V14.01,2013-02-24 07:15:00,
2013-02-23 23:30:00,44.4,39.3,29.97,NE,45,0.0,4.0,82,0.00,,---,0.02,VWS V14.01,2013-02-24 07:30:00,
2013-02-23 23:45:00,44.2,39.1,29.97,NE,45,1.0,6.0,82,0.00,,---,0.02,VWS V14.01,2013-02-24 07:45:00,